Troy, TN

6:16 AM CDT on September 15, 2014 (GMT -0500)
KTNUNION3 | Change Station
CLOSE
Current Station
Personal Weather Station
Location: Union City, TN
Elevation: 360 ft
Nearby Weather Stations

Elev 360 ft 36.41 °N, 89.05 °W | Updated 6 minutes ago

Partly Cloudy
Partly Cloudy
55.1 °F
Feels Like 55.1 °F
N
0.0
Wind Variable Wind from NNE
Gusts 0.0 mph

Today
High -- | Low -- °F
--% Chance of Precip.
Yesterday
High -- | Low -- °F
Precip. -- in
6:39 AM 7:03 PM
Waning Gibbous, 56% visible
Pressure 30.16 in
Visibility 10.0 miles
Clouds Clear
Dew Point 53 °F
Humidity 94%
Rainfall 0.00 in
Snow Depth Not available.
UV 0 out of 12
Pollen 7.70 out of 12
Air Quality Not available.
Flu Activity Not available.
METAR KUCY 151055Z AUTO 00000KT 10SM CLR 12/12 A3016 RMK

More Conditions Fewer Conditions

Pressure 30.16 in
Visibility 10.0 miles
Clouds Clear
Dew Point 53 °F
Humidity 94%
Rainfall 0.00 in
Snow Depth Not available.
UV 0 out of 12
Pollen 7.70 out of 12
Air Quality Not available.
Flu Activity Not available.
METAR KUCY 151055Z AUTO 00000KT 10SM CLR 12/12 A3016 RMK

More Conditions Fewer Conditions

10-Day Weather Forecast

Almanac

Astronomy

Sep. 15, 2014 Rise Set
Actual Time 6:39 AM CDT 7:03 PM CDT
Civil Twilight 6:13 AM CDT 7:29 PM CDT
Nautical Twilight 5:42 AM CDT 8:00 PM CDT
Astronomical Twilight 5:12 AM CDT 8:30 PM CDT
Moon 11:56 PM CDT 1:29 PM CDT
Length of Visible Light 13h 16m
Length of Day
12h 24m
Tomorrow will be 2m 17s shorter.
Waning Gibbous, 56% of the Moon is Illuminated
Today
Waning Gibbous
Sep 15
Last Quarter
Sep 24
New
Oct 1
First Quarter
Oct 8
Full

Today's Extremes

State Highs State Lows

Community

WunderPhotos

Upload Photos

1,753,429 photos uploaded!

Nearby

Snow Depth

Station Depth Elevation
No new snow has been reported.

Earthquake Activity

City Distance Mag. Time & Date
No recent earthquake activity has been reported nearby.
Minimum magnitude displayed is 2.5.

Coastal Water Temperatures

Place Temperature
No Stations Reporting

Nearby Weather Stations